Time;durP1;ratioP1;P1;durP2;ratioP2;P2;SDS_P1;SDS_P2;PMS_P1;PMS_P2;Temp;Humidity;BMP_temperature;BMP_pressure;BME280_temperature;BME280_humidity;BME280_pressure;Samples;Min_cycle;Max_cycle;Signal;HPM_P1;HPM_P2
2023/03/15 00:01:13;;;;;;;7.30;4.40;;;2.50;99.90;;;;;;5024439;28;20506;-75
2023/03/15 00:03:39;;;;;;;15.17;4.43;;;2.50;99.90;;;;;;5019910;28;20599;-73
2023/03/15 00:06:05;;;;;;;5.93;3.73;;;2.50;99.90;;;;;;5019839;28;20424;-75
2023/03/15 00:08:33;;;;;;;6.73;4.20;;;2.50;99.90;;;;;;5020552;28;20193;-75
2023/03/15 00:10:59;;;;;;;10.70;4.73;;;2.50;99.90;;;;;;5011799;28;20437;-72
2023/03/15 00:13:25;;;;;;;9.27;5.17;;;2.40;99.90;;;;;;5018131;28;20934;-75
2023/03/15 00:15:55;;;;;;;7.87;4.70;;;2.40;99.90;;;;;;5010334;28;20477;-75
2023/03/15 00:18:20;;;;;;;6.00;4.10;;;2.40;99.90;;;;;;5029861;28;20656;-75
2023/03/15 00:20:47;;;;;;;10.10;4.83;;;2.40;99.90;;;;;;5003799;28;20480;-75
2023/03/15 00:23:13;;;;;;;11.20;5.17;;;2.40;99.90;;;;;;5003185;28;20571;-75
2023/03/15 00:25:39;;;;;;;9.83;4.77;;;2.40;99.90;;;;;;5004418;28;20483;-74
2023/03/15 00:28:05;;;;;;;12.47;4.23;;;2.50;99.90;;;;;;5020316;28;20426;-74
2023/03/15 00:30:31;;;;;;;8.10;4.60;;;2.40;99.90;;;;;;5011330;28;20431;-74
2023/03/15 00:32:57;;;;;;;9.97;4.67;;;2.40;99.90;;;;;;5011452;28;20440;-74
2023/03/15 00:35:23;;;;;;;11.90;5.57;;;2.50;99.90;;;;;;5003509;28;20476;-74
2023/03/15 00:37:53;;;;;;;11.03;4.73;;;2.50;99.90;;;;;;5020201;28;20187;-72
2023/03/15 00:40:19;;;;;;;8.40;5.00;;;2.50;99.90;;;;;;5003417;28;20180;-75
2023/03/15 00:42:48;;;;;;;9.90;4.27;;;2.60;99.90;;;;;;5019914;28;20445;-75
2023/03/15 00:45:14;;;;;;;9.30;4.60;;;2.60;99.90;;;;;;5004356;28;20190;-75
2023/03/15 00:47:40;;;;;;;15.23;4.83;;;2.60;99.90;;;;;;5011433;28;20926;-77
2023/03/15 00:50:05;;;;;;;13.03;4.60;;;2.60;99.90;;;;;;5004130;28;20193;-75
2023/03/15 00:52:35;;;;;;;11.77;4.70;;;2.50;99.90;;;;;;5002025;28;20206;-76
2023/03/15 00:55:02;;;;;;;8.50;4.53;;;2.60;99.90;;;;;;5019963;28;20215;-75
2023/03/15 00:57:27;;;;;;;11.33;4.90;;;2.50;99.90;;;;;;5020920;28;20423;-75
2023/03/15 00:59:53;;;;;;;14.63;4.77;;;2.60;99.90;;;;;;5026048;28;20480;-75
2023/03/15 01:02:21;;;;;;;10.50;5.80;;;2.60;99.90;;;;;;5019284;28;20205;-75
2023/03/15 01:04:47;;;;;;;7.43;3.63;;;2.60;99.90;;;;;;5015785;28;20644;-76
2023/03/15 01:07:13;;;;;;;21.90;4.17;;;2.50;99.90;;;;;;5030794;28;20421;-76
2023/03/15 01:09:38;;;;;;;7.70;2.87;;;2.50;99.90;;;;;;5003275;28;20422;-73
2023/03/15 01:12:04;;;;;;;7.20;3.17;;;2.40;99.90;;;;;;5011337;28;20206;-76
2023/03/15 01:14:29;;;;;;;12.77;3.90;;;2.40;99.90;;;;;;5003348;28;20296;-79
2023/03/15 01:16:55;;;;;;;7.03;3.37;;;2.30;99.90;;;;;;5019595;28;20191;-75
2023/03/15 01:19:20;;;;;;;5.87;3.33;;;2.30;99.90;;;;;;5011303;28;20190;-76
2023/03/15 01:21:46;;;;;;;12.37;3.40;;;2.20;99.90;;;;;;5023554;28;20257;-76
2023/03/15 01:24:13;;;;;;;10.40;3.07;;;2.20;99.90;;;;;;5026705;28;20234;-77
2023/03/15 01:26:39;;;;;;;7.10;3.07;;;2.20;99.90;;;;;;5014895;28;20425;-71
2023/03/15 01:29:06;;;;;;;7.67;3.10;;;2.10;99.90;;;;;;5014492;28;20438;-73
2023/03/15 01:31:32;;;;;;;7.90;3.03;;;2.00;99.90;;;;;;5023984;28;20456;-73
2023/03/15 01:33:58;;;;;;;9.00;3.10;;;1.90;99.90;;;;;;5028532;28;20755;-73
2023/03/15 01:36:24;;;;;;;6.90;2.47;;;1.90;99.90;;;;;;5030757;28;20534;-73
2023/03/15 01:38:49;;;;;;;10.13;3.40;;;1.90;99.90;;;;;;5014189;28;20947;-73
2023/03/15 01:41:16;;;;;;;6.70;2.53;;;1.90;99.90;;;;;;5014098;28;20199;-75
2023/03/15 01:43:46;;;;;;;6.80;2.50;;;1.80;99.90;;;;;;5017922;28;20178;-74
2023/03/15 01:46:28;;;;;;;6.00;2.70;;;1.80;99.90;;;;;;5034088;28;20423;-76
2023/03/15 01:49:21;;;;;;;6.90;2.33;;;1.70;99.90;;;;;;5034369;28;20416;-73
2023/03/15 01:51:52;;;;;;;5.20;1.97;;;1.70;99.90;;;;;;5007112;28;20927;-75
2023/03/15 01:54:31;;;;;;;5.80;2.50;;;1.70;99.90;;;;;;5014121;28;20422;-74
2023/03/15 01:57:04;;;;;;;5.10;2.30;;;1.60;99.90;;;;;;5016580;28;20448;-74
2023/03/15 01:59:57;;;;;;;8.17;2.10;;;1.60;99.90;;;;;;5022314;28;20435;-77
2023/03/15 03:30:30;;;;;;;13.03;1.33;;;1.00;99.90;;;;;;6109807;22;20343;-72
2023/03/15 03:32:56;;;;;;;3.97;1.17;;;0.90;99.90;;;;;;5004703;28;20966;-74
2023/03/15 03:35:22;;;;;;;5.93;2.03;;;0.90;99.90;;;;;;4991995;28;20489;-71
2023/03/15 03:37:48;;;;;;;5.47;1.47;;;0.90;99.90;;;;;;4999148;28;20435;-73
2023/03/15 03:40:13;;;;;;;2.40;1.10;;;0.80;99.90;;;;;;5007217;28;20202;-76
2023/03/15 03:42:39;;;;;;;5.43;1.30;;;0.70;99.90;;;;;;4993326;28;20676;-74
2023/03/15 03:45:05;;;;;;;11.07;1.60;;;0.70;99.90;;;;;;4990767;28;20205;-74
2023/03/15 03:47:31;;;;;;;9.93;1.60;;;0.70;99.90;;;;;;4994261;28;20195;-75
2023/03/15 03:49:56;;;;;;;1.90;1.00;;;0.60;99.90;;;;;;5008763;28;20838;-74
2023/03/15 03:52:22;;;;;;;2.20;1.40;;;0.60;99.90;;;;;;5009346;28;20294;-75
2023/03/15 03:54:47;;;;;;;5.30;1.40;;;0.60;99.90;;;;;;5000857;28;20205;-73
2023/03/15 03:57:13;;;;;;;1.93;1.27;;;0.50;99.90;;;;;;4994463;28;20558;-74
2023/03/15 03:59:38;;;;;;;9.93;1.10;;;0.40;99.90;;;;;;4995375;28;20198;-74
2023/03/15 04:02:04;;;;;;;7.60;1.27;;;0.40;99.90;;;;;;5000083;28;20220;-74
2023/03/15 04:04:29;;;;;;;7.90;1.30;;;0.40;99.90;;;;;;5000690;28;20278;-77
2023/03/15 04:06:55;;;;;;;4.67;1.83;;;0.30;99.90;;;;;;4992080;28;20474;-74
2023/03/15 04:09:23;;;;;;;8.20;1.43;;;0.30;99.90;;;;;;4993356;28;20198;-74
2023/03/15 04:11:49;;;;;;;5.83;1.23;;;0.20;99.90;;;;;;5000064;28;20221;-74
2023/03/15 04:14:14;;;;;;;6.97;1.30;;;0.20;99.90;;;;;;4992079;28;20437;-75
2023/03/15 04:16:40;;;;;;;3.60;1.63;;;0.20;99.90;;;;;;5001755;28;20187;-72
2023/03/15 04:19:07;;;;;;;1.77;1.30;;;0.20;99.90;;;;;;5003762;28;20197;-74
2023/03/15 04:21:33;;;;;;;5.50;1.43;;;0.20;99.90;;;;;;4994869;28;20217;-76
2023/03/15 04:23:59;;;;;;;14.13;2.27;;;0.20;99.90;;;;;;4998555;28;20433;-74
2023/03/15 04:26:26;;;;;;;10.73;2.30;;;0.20;99.90;;;;;;5000080;28;20837;-73
2023/03/15 04:28:53;;;;;;;5.87;1.60;;;0.20;99.90;;;;;;4991958;28;20768;-74
2023/03/15 04:31:19;;;;;;;3.70;2.10;;;0.20;99.90;;;;;;4999160;28;20461;-76
2023/03/15 04:33:45;;;;;;;5.33;1.90;;;0.20;99.90;;;;;;5003899;28;20816;-75
2023/03/15 04:36:17;;;;;;;4.27;1.80;;;0.20;99.90;;;;;;5003753;28;20453;-74
2023/03/15 04:38:45;;;;;;;12.50;2.40;;;0.20;99.90;;;;;;4995130;28;20286;-74
2023/03/15 04:41:11;;;;;;;8.50;3.30;;;0.20;99.90;;;;;;5003151;28;20520;-74
2023/03/15 04:43:37;;;;;;;10.13;2.97;;;0.30;99.90;;;;;;5006189;28;20417;-76
2023/03/15 04:46:02;;;;;;;12.87;3.87;;;0.30;99.90;;;;;;4999876;28;20420;-75
2023/03/15 04:48:28;;;;;;;10.30;2.90;;;0.30;99.90;;;;;;4999765;28;20188;-73
2023/03/15 04:50:53;;;;;;;5.47;2.80;;;0.30;99.90;;;;;;4998498;28;20209;-73
2023/03/15 04:53:19;;;;;;;7.20;2.77;;;0.30;99.90;;;;;;4999076;28;20640;-74
2023/03/15 04:55:45;;;;;;;11.30;3.00;;;0.20;99.90;;;;;;5010782;28;20208;-75
2023/03/15 04:58:10;;;;;;;11.47;3.17;;;0.20;99.90;;;;;;5001099;28;20559;-74
2023/03/15 05:00:36;;;;;;;6.50;2.30;;;0.10;99.90;;;;;;5012453;28;20192;-74
2023/03/15 05:03:01;;;;;;;7.07;2.30;;;0.10;99.90;;;;;;5006763;28;20176;-74
2023/03/15 05:05:28;;;;;;;6.23;2.53;;;0.10;99.90;;;;;;4998936;28;20554;-75
2023/03/15 05:07:53;;;;;;;5.73;2.20;;;0.10;99.90;;;;;;4987522;28;20174;-74
2023/03/15 05:10:20;;;;;;;7.10;2.90;;;0.00;99.90;;;;;;5002354;28;20439;-74
2023/03/15 05:12:45;;;;;;;5.37;2.20;;;0.00;99.90;;;;;;5003697;28;20181;-76
2023/03/15 05:15:11;;;;;;;15.93;2.93;;;0.00;99.90;;;;;;5001079;28;20463;-74
2023/03/15 05:17:37;;;;;;;7.50;2.67;;;-0.10;99.90;;;;;;4997141;28;20611;-72
2023/03/15 05:20:09;;;;;;;12.63;2.10;;;-0.10;99.90;;;;;;4995039;28;20819;-73
2023/03/15 05:22:35;;;;;;;6.03;2.23;;;-0.10;99.90;;;;;;5003539;28;20289;-72
2023/03/15 05:25:01;;;;;;;5.37;1.77;;;0.00;99.90;;;;;;5001896;28;20548;-72
2023/03/15 05:27:27;;;;;;;9.30;2.17;;;0.10;99.90;;;;;;5002760;28;20420;-72
2023/03/15 05:29:52;;;;;;;14.80;3.13;;;0.00;99.90;;;;;;4994509;28;20246;-72
2023/03/15 05:32:18;;;;;;;4.00;1.80;;;0.10;99.90;;;;;;4994254;28;20888;-71
2023/03/15 05:34:43;;;;;;;8.47;2.33;;;0.10;99.90;;;;;;4994313;28;20211;-72
2023/03/15 05:37:09;;;;;;;6.53;2.17;;;0.10;99.90;;;;;;4999985;28;20183;-72
2023/03/15 05:39:34;;;;;;;9.73;2.70;;;0.20;99.90;;;;;;4997041;28;20210;-72
2023/03/15 05:42:00;;;;;;;10.33;2.30;;;0.20;99.90;;;;;;4994205;28;20267;-72
2023/03/15 05:44:26;;;;;;;6.00;2.03;;;0.30;99.90;;;;;;5010032;28;20180;-72
2023/03/15 05:46:51;;;;;;;11.20;2.40;;;0.30;99.90;;;;;;4994454;28;20770;-73
2023/03/15 05:49:17;;;;;;;6.67;2.40;;;0.30;99.90;;;;;;5002483;28;20355;-71
2023/03/15 05:51:42;;;;;;;20.70;5.10;;;0.30;99.90;;;;;;4994046;28;20206;-72
2023/03/15 05:54:08;;;;;;;8.43;2.90;;;0.40;99.90;;;;;;4994128;28;20598;-72
2023/03/15 05:56:33;;;;;;;17.43;2.53;;;0.50;99.90;;;;;;4994119;28;20206;-71
2023/03/15 05:59:01;;;;;;;14.73;3.50;;;0.70;99.90;;;;;;4994202;28;20180;-71
2023/03/15 06:01:27;;;;;;;11.43;3.17;;;0.80;99.90;;;;;;5001622;28;20211;-72
2023/03/15 06:03:52;;;;;;;7.23;2.20;;;1.00;99.90;;;;;;5001950;28;20512;-72
2023/03/15 06:06:18;;;;;;;5.80;1.40;;;1.70;99.90;;;;;;4994260;28;20452;-72
2023/03/15 06:08:43;;;;;;;7.30;1.70;;;2.70;99.90;;;;;;4992952;28;20186;-72
2023/03/15 06:11:09;;;;;;;20.30;2.70;;;3.80;99.90;;;;;;5001615;28;20262;-73
2023/03/15 06:13:34;;;;;;;7.60;1.70;;;4.70;99.90;;;;;;5001815;28;20197;-72
2023/03/15 06:16:00;;;;;;;7.30;1.90;;;5.60;99.90;;;;;;5001818;28;20299;-72
2023/03/15 06:18:25;;;;;;;7.83;2.40;;;6.80;99.90;;;;;;5001729;28;20180;-72
2023/03/15 06:20:51;;;;;;;7.77;2.30;;;7.80;99.90;;;;;;4995842;28;20217;-71
2023/03/15 06:23:16;;;;;;;11.10;2.07;;;8.30;99.90;;;;;;4998986;28;20655;-72
2023/03/15 06:25:42;;;;;;;12.77;1.70;;;9.00;99.90;;;;;;5009565;28;20236;-72
2023/03/15 06:28:07;;;;;;;10.50;2.37;;;9.20;99.90;;;;;;4993622;28;20191;-72
2023/03/15 06:30:34;;;;;;;12.83;1.90;;;9.50;99.90;;;;;;4990571;28;20686;-70
2023/03/15 06:33:00;;;;;;;17.53;2.27;;;10.40;99.90;;;;;;4987146;28;20187;-71
2023/03/15 06:35:25;;;;;;;18.00;2.13;;;10.60;99.90;;;;;;4993755;28;20469;-73
2023/03/15 06:37:51;;;;;;;14.23;1.67;;;11.10;99.90;;;;;;5005870;28;20425;-72
2023/03/15 06:40:17;;;;;;;5.30;1.70;;;11.50;99.90;;;;;;4998892;28;20179;-73
2023/03/15 06:42:43;;;;;;;2.87;1.33;;;11.40;99.90;;;;;;4992201;28;20469;-74
2023/03/15 06:45:09;;;;;;;11.70;2.20;;;11.00;99.90;;;;;;4991956;28;20214;-72
2023/03/15 06:47:34;;;;;;;56.80;2.20;;;11.00;99.90;;;;;;4992473;28;20731;-72
2023/03/15 06:50:00;;;;;;;39.77;2.17;;;11.60;99.90;;;;;;4992690;28;20505;-73
2023/03/15 06:52:25;;;;;;;42.00;2.30;;;12.00;99.90;;;;;;4992860;28;20590;-72
2023/03/15 06:54:51;;;;;;;45.00;2.20;;;11.80;99.90;;;;;;4993279;28;20218;-73
2023/03/15 06:57:16;;;;;;;47.80;2.10;;;12.00;99.90;;;;;;4994238;28;20634;-74
2023/03/15 06:59:42;;;;;;;51.13;1.80;;;12.70;99.90;;;;;;4994066;28;20191;-72
2023/03/15 07:02:13;;;;;;;82.53;4.10;;;13.20;99.90;;;;;;4993631;28;20211;-72
2023/03/15 07:04:39;;;;;;;114.00;20.80;;;13.60;99.90;;;;;;5002020;28;20184;-74
2023/03/15 07:07:04;;;;;;;230.07;50.13;;;13.40;99.90;;;;;;4994170;28;20495;-72
2023/03/15 07:09:30;;;;;;;197.03;94.77;;;13.60;99.90;;;;;;4993644;28;20191;-73
2023/03/15 07:11:55;;;;;;;147.83;58.53;;;14.00;99.90;;;;;;4992560;28;20617;-72
2023/03/15 07:14:21;;;;;;;163.73;119.30;;;13.80;99.90;;;;;;4992799;28;20195;-73
2023/03/15 07:16:47;;;;;;;16.00;1.87;;;13.90;99.90;;;;;;4993923;28;20245;-74
2023/03/15 07:19:13;;;;;;;16.50;1.90;;;13.90;99.90;;;;;;4999157;28;20198;-73
2023/03/15 07:21:39;;;;;;;23.67;2.07;;;13.50;99.90;;;;;;4991873;28;20439;-73
2023/03/15 07:24:04;;;;;;;25.30;2.10;;;13.20;99.90;;;;;;4992760;28;20190;-73
2023/03/15 07:26:30;;;;;;;34.07;2.70;;;12.70;99.90;;;;;;4992671;28;20195;-73
2023/03/15 07:28:55;;;;;;;35.93;2.47;;;12.60;99.90;;;;;;5000365;28;20223;-73
2023/03/15 07:31:21;;;;;;;31.80;2.57;;;12.50;99.90;;;;;;4997011;28;20423;-74
2023/03/15 07:33:47;;;;;;;26.83;2.60;;;12.30;99.90;;;;;;4993911;28;20194;-73
2023/03/15 07:36:12;;;;;;;27.17;1.50;;;11.70;99.90;;;;;;4992731;28;20977;-73
2023/03/15 07:38:38;;;;;;;14.50;1.70;;;11.40;99.90;;;;;;4991857;28;20685;-72
2023/03/15 07:41:05;;;;;;;15.47;2.13;;;10.60;99.90;;;;;;4992422;28;20202;-71
2023/03/15 07:43:31;;;;;;;16.77;2.23;;;10.50;99.90;;;;;;4992035;28;20270;-72
2023/03/15 07:45:56;;;;;;;17.57;1.93;;;10.00;99.90;;;;;;5006815;28;20560;-72
2023/03/15 07:48:22;;;;;;;18.70;2.20;;;9.50;99.90;;;;;;4992245;28;20593;-73
2023/03/15 07:50:47;;;;;;;24.50;1.83;;;9.50;99.90;;;;;;4999795;28;20212;-72
2023/03/15 07:53:13;;;;;;;19.60;1.67;;;9.50;99.90;;;;;;4999711;28;20202;-73
2023/03/15 07:55:38;;;;;;;20.47;1.97;;;9.70;99.90;;;;;;4991991;28;20224;-71
2023/03/15 07:58:04;;;;;;;19.20;1.50;;;9.70;99.90;;;;;;4990695;28;20187;-73
2023/03/15 08:00:31;;;;;;;22.50;2.33;;;9.50;99.90;;;;;;4992020;28;20183;-72
2023/03/15 08:02:57;;;;;;;25.70;2.37;;;9.40;99.90;;;;;;4990958;28;20838;-72
2023/03/15 08:05:23;;;;;;;21.50;1.70;;;9.50;99.90;;;;;;4992303;28;20432;-73
2023/03/15 08:07:49;;;;;;;23.57;2.30;;;9.60;99.90;;;;;;4991595;28;20933;-73
2023/03/15 08:10:15;;;;;;;19.73;2.13;;;9.80;99.90;;;;;;4991796;28;20425;-74
2023/03/15 08:12:42;;;;;;;24.70;2.07;;;10.00;99.90;;;;;;4999308;28;20449;-71
2023/03/15 08:15:17;;;;;;;18.10;1.93;;;9.80;99.90;;;;;;4991670;28;20528;-74
2023/03/15 08:17:43;;;;;;;18.83;1.73;;;9.90;99.90;;;;;;4999441;28;21010;-72
2023/03/15 08:20:28;;;;;;;18.60;2.30;;;10.50;99.90;;;;;;4991725;28;20433;-72
2023/03/15 08:22:54;;;;;;;18.03;1.90;;;10.60;99.90;;;;;;4992857;28;21046;-72
2023/03/15 08:25:22;;;;;;;18.83;1.63;;;10.60;99.90;;;;;;4997658;28;20515;-73
2023/03/15 08:27:49;;;;;;;19.33;2.03;;;10.70;99.90;;;;;;4991455;28;20655;-72
2023/03/15 08:30:16;;;;;;;20.70;2.00;;;10.80;99.90;;;;;;4991655;28;20422;-73
2023/03/15 08:32:44;;;;;;;19.43;1.80;;;11.20;99.90;;;;;;5002404;28;20612;-71
2023/03/15 08:35:11;;;;;;;22.73;2.03;;;10.90;99.90;;;;;;4995488;28;20476;-72
2023/03/15 08:37:37;;;;;;;17.60;1.53;;;11.00;99.90;;;;;;4995686;28;20445;-72
2023/03/15 08:40:10;;;;;;;18.10;1.50;;;10.70;99.90;;;;;;4995391;28;20429;-73
2023/03/15 08:42:36;;;;;;;18.67;1.90;;;10.90;99.90;;;;;;4994205;28;20450;-73
2023/03/15 08:45:06;;;;;;;14.90;1.60;;;11.30;99.90;;;;;;4995323;28;20426;-74
2023/03/15 08:47:36;;;;;;;11.63;1.70;;;11.30;99.90;;;;;;5003570;28;20466;-73
2023/03/15 08:50:04;;;;;;;9.43;1.30;;;11.00;99.90;;;;;;4995301;28;20423;-74
2023/03/15 08:52:30;;;;;;;10.50;1.60;;;10.50;99.90;;;;;;4995537;28;20525;-73
2023/03/15 08:54:56;;;;;;;7.43;1.20;;;10.80;99.90;;;;;;4995275;28;20564;-73
2023/03/15 08:57:24;;;;;;;9.20;1.80;;;10.70;99.90;;;;;;4995773;28;20433;-72
2023/03/15 08:59:50;;;;;;;6.37;1.63;;;10.70;99.90;;;;;;4995244;28;20230;-73
2023/03/15 09:02:16;;;;;;;9.80;2.37;;;10.40;99.90;;;;;;4995819;28;20489;-73
2023/03/15 09:04:41;;;;;;;5.30;1.50;;;10.60;99.90;;;;;;4995311;28;20437;-74
2023/03/15 09:07:07;;;;;;;21.30;1.43;;;10.30;99.90;;;;;;4995318;28;20244;-74
2023/03/15 09:09:32;;;;;;;15.40;1.90;;;9.90;99.90;;;;;;4995663;28;20183;-74
2023/03/15 09:11:58;;;;;;;5.37;1.23;;;9.50;99.90;;;;;;4995157;28;20202;-74
2023/03/15 09:14:23;;;;;;;6.17;1.70;;;9.60;99.90;;;;;;4995307;28;20666;-74
2023/03/15 09:16:49;;;;;;;10.80;1.67;;;9.80;99.90;;;;;;4994907;28;20185;-73
2023/03/15 09:19:15;;;;;;;14.80;2.43;;;9.90;99.90;;;;;;4995114;28;20186;-73
2023/03/15 09:21:40;;;;;;;10.40;1.47;;;10.10;99.90;;;;;;4994877;28;20563;-74
2023/03/15 09:24:06;;;;;;;11.80;1.83;;;9.90;99.90;;;;;;4994733;28;20224;-73
2023/03/15 09:26:31;;;;;;;10.50;2.23;;;9.90;99.90;;;;;;4995142;28;20193;-75
2023/03/15 09:28:57;;;;;;;23.30;1.83;;;9.90;99.90;;;;;;4994555;28;20245;-72
2023/03/15 09:31:23;;;;;;;8.70;1.10;;;9.80;99.90;;;;;;4994458;28;20226;-73
2023/03/15 09:33:49;;;;;;;3.80;1.70;;;9.60;99.90;;;;;;4994578;28;20326;-73
2023/03/15 09:36:14;;;;;;;11.30;1.50;;;9.40;99.90;;;;;;4994868;28;20559;-72
2023/03/15 09:38:42;;;;;;;9.10;1.40;;;9.20;99.90;;;;;;5002121;28;20201;-71
2023/03/15 09:41:19;;;;;;;6.93;1.20;;;9.20;99.90;;;;;;4993788;28;20702;-72
2023/03/15 09:44:22;;;;;;;6.43;1.60;;;9.00;99.90;;;;;;4991991;28;20433;-72
2023/03/15 09:46:56;;;;;;;3.93;0.67;;;8.60;99.90;;;;;;4994375;28;20424;-72
2023/03/15 09:50:13;;;;;;;4.03;1.00;;;8.30;99.90;;;;;;4999288;28;20488;-72
2023/03/15 09:52:44;;;;;;;4.10;1.03;;;8.10;99.90;;;;;;4937799;29;20444;-71
2023/03/15 09:55:23;;;;;;;4.83;1.10;;;7.90;99.90;;;;;;4941855;29;21023;-72
2023/03/15 09:57:58;;;;;;;2.97;0.97;;;7.80;99.90;;;;;;4982438;28;20433;-73
2023/03/15 10:00:43;;;;;;;3.60;1.00;;;7.80;99.90;;;;;;4994324;28;20711;-72
2023/03/15 10:03:25;;;;;;;3.97;1.00;;;7.70;99.90;;;;;;4993650;28;20781;-73
2023/03/15 10:06:01;;;;;;;4.10;1.27;;;7.60;99.90;;;;;;4993952;28;20971;-73
2023/03/15 10:08:27;;;;;;;9.27;1.77;;;7.60;99.90;;;;;;4994201;28;20866;-73
2023/03/15 10:11:03;;;;;;;3.17;1.00;;;7.70;99.90;;;;;;4993818;28;20554;-72
2023/03/15 10:13:59;;;;;;;4.53;1.00;;;7.80;99.90;;;;;;4993873;28;20645;-73
2023/03/15 10:16:44;;;;;;;3.57;1.17;;;8.30;99.90;;;;;;4993969;28;20479;-71
2023/03/15 10:19:34;;;;;;;3.90;1.00;;;9.10;99.90;;;;;;4993438;28;20420;-73
2023/03/15 10:22:18;;;;;;;4.63;0.97;;;9.20;99.90;;;;;;4993230;28;20798;-73
2023/03/15 10:24:50;;;;;;;4.57;1.10;;;8.70;99.90;;;;;;4993642;28;20468;-72
2023/03/15 10:27:18;;;;;;;3.80;0.90;;;8.40;99.90;;;;;;4986336;28;20426;-73
2023/03/15 10:29:45;;;;;;;6.53;1.43;;;8.20;99.90;;;;;;4993587;28;20974;-73
2023/03/15 10:32:17;;;;;;;1.33;0.97;;;8.10;99.90;;;;;;5001019;28;20456;-73
2023/03/15 10:34:54;;;;;;;4.13;0.80;;;8.50;99.90;;;;;;4993397;28;20566;-73
2023/03/15 10:37:22;;;;;;;9.83;1.10;;;9.00;99.90;;;;;;4986973;28;20908;-72
2023/03/15 10:39:53;;;;;;;4.50;0.90;;;9.20;99.90;;;;;;4993190;28;20414;-71
2023/03/15 10:42:27;;;;;;;4.30;0.90;;;9.60;99.90;;;;;;5001078;28;20868;-73
2023/03/15 10:44:53;;;;;;;5.07;0.90;;;10.20;99.90;;;;;;4993174;28;20813;-73
2023/03/15 10:47:20;;;;;;;6.67;1.00;;;10.20;99.90;;;;;;4997318;28;20426;-73
2023/03/15 10:49:46;;;;;;;2.47;1.37;;;10.20;99.90;;;;;;4996683;28;20202;-73
2023/03/15 10:52:36;;;;;;;2.93;1.10;;;9.80;99.90;;;;;;4992611;28;20813;-73
2023/03/15 10:55:06;;;;;;;15.10;1.20;;;9.50;99.90;;;;;;4992612;28;20592;-71
2023/03/15 10:57:38;;;;;;;19.87;2.33;;;9.40;99.90;;;;;;4993322;28;20478;-72
2023/03/15 11:00:22;;;;;;;18.70;1.33;;;9.20;99.90;;;;;;4992868;28;20441;-73
2023/03/15 11:02:50;;;;;;;13.77;1.03;;;9.10;99.90;;;;;;4992961;28;20757;-73
2023/03/15 11:05:17;;;;;;;17.20;1.03;;;9.20;99.90;;;;;;4993315;28;20419;-73
2023/03/15 11:08:00;;;;;;;14.93;1.30;;;9.00;99.90;;;;;;4993147;28;20861;-74
2023/03/15 11:10:28;;;;;;;19.57;1.20;;;8.70;99.90;;;;;;4986626;28;20420;-74
2023/03/15 11:13:10;;;;;;;12.97;1.00;;;8.50;99.90;;;;;;4992436;28;20420;-73
2023/03/15 11:15:36;;;;;;;14.00;1.80;;;8.30;99.90;;;;;;4992990;28;20522;-73
2023/03/15 11:18:02;;;;;;;15.07;0.83;;;8.20;99.90;;;;;;4992530;28;20435;-74
2023/03/15 11:20:35;;;;;;;16.73;1.27;;;8.10;99.90;;;;;;4992970;28;20862;-73
2023/03/15 11:23:12;;;;;;;16.53;1.17;;;8.00;99.90;;;;;;5000469;28;20178;-75
2023/03/15 11:25:38;;;;;;;14.60;1.00;;;8.10;99.90;;;;;;4993176;28;20456;-74
2023/03/15 11:28:04;;;;;;;19.50;1.47;;;8.20;99.90;;;;;;4992478;28;20984;-73
2023/03/15 11:30:30;;;;;;;17.40;1.27;;;8.20;99.90;;;;;;4992795;28;20275;-73
2023/03/15 11:33:04;;;;;;;15.23;0.90;;;8.10;99.90;;;;;;4992666;28;20193;-71
2023/03/15 11:35:47;;;;;;;17.23;0.80;;;8.10;99.90;;;;;;5003965;28;20272;-72
2023/03/15 11:38:32;;;;;;;15.67;0.90;;;7.90;99.90;;;;;;4992608;28;20417;-72
2023/03/15 11:40:58;;;;;;;18.03;1.90;;;7.90;99.90;;;;;;4992188;28;20514;-71
2023/03/15 11:43:39;;;;;;;21.60;0.90;;;8.10;99.90;;;;;;4992066;28;20515;-72
2023/03/15 11:46:11;;;;;;;21.70;1.20;;;8.10;99.90;;;;;;4992173;28;20435;-74
2023/03/15 11:48:45;;;;;;;19.40;0.83;;;8.00;99.90;;;;;;4992436;28;20513;-75
2023/03/15 11:51:12;;;;;;;20.80;1.47;;;8.00;99.90;;;;;;4991623;28;20451;-73
2023/03/15 11:53:46;;;;;;;21.43;1.20;;;8.00;99.90;;;;;;4992221;28;20428;-73
2023/03/15 11:56:24;;;;;;;19.07;0.80;;;8.10;99.90;;;;;;4999773;28;20521;-74
2023/03/15 11:59:03;;;;;;;19.80;0.80;;;8.10;99.90;;;;;;4992197;28;20467;-74
2023/03/15 12:01:29;;;;;;;19.47;1.03;;;8.10;99.90;;;;;;4990407;28;20443;-73
2023/03/15 12:04:24;;;;;;;22.47;1.07;;;8.20;99.90;;;;;;5002466;28;20413;-72
2023/03/15 12:06:54;;;;;;;22.97;1.00;;;8.00;99.90;;;;;;4990041;28;20509;-73
2023/03/15 12:09:31;;;;;;;19.23;0.90;;;8.00;99.90;;;;;;4984421;28;20409;-71
2023/03/15 12:11:59;;;;;;;19.87;1.27;;;8.20;99.90;;;;;;4991347;28;20435;-72
2023/03/15 12:14:31;;;;;;;20.20;1.10;;;8.20;99.90;;;;;;4991859;28;20502;-73
2023/03/15 12:17:27;;;;;;;21.37;1.20;;;8.10;99.90;;;;;;4999684;28;20431;-72
2023/03/15 12:20:17;;;;;;;23.17;1.30;;;8.20;99.90;;;;;;4991738;28;20869;-72
2023/03/15 12:23:10;;;;;;;20.97;1.13;;;8.30;99.90;;;;;;4985450;28;20978;-74
2023/03/15 12:26:02;;;;;;;25.00;1.30;;;8.50;99.90;;;;;;4991842;28;20806;-73
2023/03/15 12:28:44;;;;;;;24.90;0.90;;;8.70;99.90;;;;;;4996845;28;20429;-74
2023/03/15 12:31:12;;;;;;;25.43;1.03;;;9.00;99.90;;;;;;4989720;28;20473;-72
2023/03/15 12:33:57;;;;;;;20.97;1.03;;;9.10;99.90;;;;;;4991671;28;20432;-73
2023/03/15 12:36:38;;;;;;;19.23;1.00;;;8.80;99.90;;;;;;4984082;28;20467;-73
2023/03/15 12:39:15;;;;;;;20.20;1.60;;;8.80;99.90;;;;;;5001103;28;20436;-72
2023/03/15 12:41:43;;;;;;;20.73;1.33;;;8.80;99.90;;;;;;5005103;28;20539;-73
2023/03/15 12:44:25;;;;;;;21.73;1.20;;;8.80;99.90;;;;;;4991451;28;20463;-71
2023/03/15 12:46:52;;;;;;;20.60;1.00;;;8.70;99.90;;;;;;4991582;28;20420;-71
2023/03/15 12:49:24;;;;;;;19.73;1.30;;;8.50;99.90;;;;;;4990916;28;20924;-73
2023/03/15 12:51:58;;;;;;;18.33;1.33;;;8.40;99.90;;;;;;5005892;28;20471;-73
2023/03/15 12:54:35;;;;;;;16.63;1.13;;;8.40;99.90;;;;;;4986612;28;20449;-74
2023/03/15 12:57:08;;;;;;;18.43;1.40;;;8.40;99.90;;;;;;4994261;28;20427;-73
2023/03/15 12:59:57;;;;;;;22.20;1.60;;;8.40;99.90;;;;;;5009685;28;20423;-72
2023/03/15 13:02:33;;;;;;;14.93;1.47;;;8.50;99.90;;;;;;5002590;28;20439;-72
2023/03/15 13:05:12;;;;;;;14.43;1.63;;;8.20;99.90;;;;;;4994316;28;20413;-71
2023/03/15 13:08:07;;;;;;;8.73;1.80;;;8.00;99.90;;;;;;4991933;28;20417;-73
2023/03/15 13:10:54;;;;;;;6.57;1.27;;;7.70;99.90;;;;;;4989847;28;20411;-72
2023/03/15 13:13:27;;;;;;;4.20;1.10;;;7.50;99.90;;;;;;4990839;28;20744;-72
2023/03/15 13:16:34;;;;;;;1.20;1.10;;;7.60;99.90;;;;;;4991469;28;20464;-72
2023/03/15 13:19:17;;;;;;;3.00;1.00;;;7.70;99.90;;;;;;4958968;28;20503;-71
2023/03/15 13:21:59;;;;;;;5.80;1.50;;;7.70;99.90;;;;;;4996127;28;20435;-72
2023/03/15 13:24:37;;;;;;;2.30;1.33;;;7.90;99.90;;;;;;4995293;28;20404;-73
2023/03/15 13:27:22;;;;;;;2.47;1.30;;;8.30;99.90;;;;;;5002540;28;20416;-73
2023/03/15 13:29:47;;;;;;;3.60;1.30;;;8.40;99.90;;;;;;4994827;28;20919;-72
2023/03/15 13:32:16;;;;;;;1.63;1.10;;;8.20;99.90;;;;;;4994184;28;20548;-73
2023/03/15 13:34:44;;;;;;;5.37;1.90;;;8.20;99.90;;;;;;4994672;28;20186;-73
2023/03/15 13:37:13;;;;;;;1.10;0.90;;;8.30;99.90;;;;;;4994473;28;20421;-71
2023/03/15 13:40:12;;;;;;;6.33;1.40;;;8.30;99.90;;;;;;4994672;28;20422;-71
2023/03/15 13:42:40;;;;;;;2.57;1.13;;;8.10;99.90;;;;;;4988443;28;20431;-72
2023/03/15 13:45:05;;;;;;;2.50;1.20;;;7.90;99.90;;;;;;4995305;28;20557;-71
2023/03/15 13:47:33;;;;;;;1.70;1.57;;;7.70;99.90;;;;;;5001724;28;20854;-72
2023/03/15 13:50:01;;;;;;;4.37;1.30;;;7.60;99.90;;;;;;4994257;28;20426;-72
2023/03/15 13:52:28;;;;;;;2.30;1.53;;;7.30;99.90;;;;;;4986651;28;20950;-70
2023/03/15 13:54:54;;;;;;;5.17;1.40;;;6.90;99.90;;;;;;4994165;28;20473;-71
2023/03/15 13:57:22;;;;;;;1.33;1.23;;;6.60;99.90;;;;;;5002415;28;20425;-73
2023/03/15 14:00:09;;;;;;;5.80;2.23;;;6.40;99.90;;;;;;4994175;28;20417;-73
2023/03/15 14:02:47;;;;;;;2.93;1.50;;;6.00;99.90;;;;;;4987450;28;20500;-72
2023/03/15 14:05:25;;;;;;;1.90;1.33;;;5.80;99.90;;;;;;5001979;28;20450;-72
2023/03/15 14:07:57;;;;;;;3.33;0.83;;;5.70;99.90;;;;;;4989266;28;20567;-71
2023/03/15 14:10:39;;;;;;;1.97;1.43;;;5.70;99.90;;;;;;4992933;28;21187;-71
2023/03/15 14:13:31;;;;;;;5.13;1.20;;;5.80;99.90;;;;;;4992388;28;20444;-72
2023/03/15 14:16:04;;;;;;;5.60;1.20;;;6.10;99.90;;;;;;5008811;28;20473;-73
2023/03/15 14:18:31;;;;;;;2.27;1.30;;;6.60;99.90;;;;;;4985337;28;20528;-72
2023/03/15 14:21:16;;;;;;;2.97;1.30;;;6.80;99.90;;;;;;4992752;28;20437;-72
2023/03/15 14:23:45;;;;;;;3.23;1.30;;;6.90;99.90;;;;;;4992746;28;20785;-72
2023/03/15 14:26:26;;;;;;;3.93;1.73;;;6.90;99.90;;;;;;4992630;28;20441;-72
2023/03/15 14:28:59;;;;;;;2.90;1.77;;;6.70;99.90;;;;;;4991068;28;20435;-72
2023/03/15 14:31:40;;;;;;;3.20;1.90;;;6.70;99.90;;;;;;4999945;28;20459;-72
2023/03/15 14:34:15;;;;;;;1.60;1.50;;;6.70;99.90;;;;;;4993037;28;20437;-72